sensor_id;sensor_type;location;lat;lon;timestamp;temperature;humidity
43647;DHT22;56152;49.996;18.980;2023-12-14T00:01:01;3.30;99.90
43647;DHT22;56152;49.996;18.980;2023-12-14T00:06:03;3.40;99.90
43647;DHT22;56152;49.996;18.980;2023-12-14T00:11:06;3.30;99.90
43647;DHT22;56152;49.996;18.980;2023-12-14T00:16:10;3.30;99.90
43647;DHT22;56152;49.996;18.980;2023-12-14T00:21:12;3.30;99.90
43647;DHT22;56152;49.996;18.980;2023-12-14T00:26:14;3.40;99.90
43647;DHT22;56152;49.996;18.980;2023-12-14T00:31:19;3.40;99.90
43647;DHT22;56152;49.996;18.980;2023-12-14T00:36:21;3.40;99.90
43647;DHT22;56152;49.996;18.980;2023-12-14T00:41:23;3.40;99.90
43647;DHT22;56152;49.996;18.980;2023-12-14T00:46:26;3.40;99.90
43647;DHT22;56152;49.996;18.980;2023-12-14T00:51:28;3.40;99.90
43647;DHT22;56152;49.996;18.980;2023-12-14T00:56:30;3.40;99.90
43647;DHT22;56152;49.996;18.980;2023-12-14T01:01:34;3.40;99.90
43647;DHT22;56152;49.996;18.980;2023-12-14T01:06:36;3.40;99.90
43647;DHT22;56152;49.996;18.980;2023-12-14T01:11:37;3.40;99.90
43647;DHT22;56152;49.996;18.980;2023-12-14T01:16:41;3.40;99.90
43647;DHT22;56152;49.996;18.980;2023-12-14T01:21:43;3.40;99.90
43647;DHT22;56152;49.996;18.980;2023-12-14T01:26:45;3.30;99.90
43647;DHT22;56152;49.996;18.980;2023-12-14T01:31:48;3.30;99.90
43647;DHT22;56152;49.996;18.980;2023-12-14T01:36:52;3.30;99.90
43647;DHT22;56152;49.996;18.980;2023-12-14T01:41:54;3.30;99.90
43647;DHT22;56152;49.996;18.980;2023-12-14T01:46:57;3.30;99.90
43647;DHT22;56152;49.996;18.980;2023-12-14T01:51:59;3.30;99.90
43647;DHT22;56152;49.996;18.980;2023-12-14T01:57:01;3.40;99.90
43647;DHT22;56152;49.996;18.980;2023-12-14T02:02:07;3.30;99.90
43647;DHT22;56152;49.996;18.980;2023-12-14T02:07:09;3.30;99.90
43647;DHT22;56152;49.996;18.980;2023-12-14T02:12:11;3.30;99.90
43647;DHT22;56152;49.996;18.980;2023-12-14T02:17:14;3.30;99.90
43647;DHT22;56152;49.996;18.980;2023-12-14T02:22:16;3.30;99.90
43647;DHT22;56152;49.996;18.980;2023-12-14T02:27:21;3.30;99.90
43647;DHT22;56152;49.996;18.980;2023-12-14T02:32:23;3.40;99.90
43647;DHT22;56152;49.996;18.980;2023-12-14T02:37:28;3.30;99.90
43647;DHT22;56152;49.996;18.980;2023-12-14T02:42:31;3.30;99.90
43647;DHT22;56152;49.996;18.980;2023-12-14T02:47:33;3.30;99.90
43647;DHT22;56152;49.996;18.980;2023-12-14T02:52:38;3.40;99.90
43647;DHT22;56152;49.996;18.980;2023-12-14T02:57:44;3.30;99.90
43647;DHT22;56152;49.996;18.980;2023-12-14T03:02:46;3.30;99.90
43647;DHT22;56152;49.996;18.980;2023-12-14T03:07:48;3.30;99.90
43647;DHT22;56152;49.996;18.980;2023-12-14T03:12:51;3.30;99.90
43647;DHT22;56152;49.996;18.980;2023-12-14T03:17:53;3.30;99.90
43647;DHT22;56152;49.996;18.980;2023-12-14T03:22:55;3.30;99.90
43647;DHT22;56152;49.996;18.980;2023-12-14T03:27:58;3.30;99.90
43647;DHT22;56152;49.996;18.980;2023-12-14T03:33:00;3.30;99.90
43647;DHT22;56152;49.996;18.980;2023-12-14T03:38:05;3.30;99.90
43647;DHT22;56152;49.996;18.980;2023-12-14T03:43:08;3.30;99.90
43647;DHT22;56152;49.996;18.980;2023-12-14T03:48:12;3.30;99.90
43647;DHT22;56152;49.996;18.980;2023-12-14T03:53:15;3.30;99.90
43647;DHT22;56152;49.996;18.980;2023-12-14T03:58:18;3.20;99.90
43647;DHT22;56152;49.996;18.980;2023-12-14T04:03:20;3.30;99.90
43647;DHT22;56152;49.996;18.980;2023-12-14T04:08:22;3.30;99.90
43647;DHT22;56152;49.996;18.980;2023-12-14T04:13:27;3.20;99.90
43647;DHT22;56152;49.996;18.980;2023-12-14T04:18:30;3.20;99.90
43647;DHT22;56152;49.996;18.980;2023-12-14T04:23:32;3.30;99.90
43647;DHT22;56152;49.996;18.980;2023-12-14T04:28:36;3.20;99.90
43647;DHT22;56152;49.996;18.980;2023-12-14T04:33:38;3.20;99.90
43647;DHT22;56152;49.996;18.980;2023-12-14T04:38:40;3.20;99.90
43647;DHT22;56152;49.996;18.980;2023-12-14T04:43:44;3.30;99.90
43647;DHT22;56152;49.996;18.980;2023-12-14T04:48:46;3.20;99.90
43647;DHT22;56152;49.996;18.980;2023-12-14T04:53:48;3.20;99.90
43647;DHT22;56152;49.996;18.980;2023-12-14T04:58:51;3.20;99.90
43647;DHT22;56152;49.996;18.980;2023-12-14T05:03:54;3.20;99.90
43647;DHT22;56152;49.996;18.980;2023-12-14T05:08:58;3.20;99.90
43647;DHT22;56152;49.996;18.980;2023-12-14T05:14:04;3.20;99.90
43647;DHT22;56152;49.996;18.980;2023-12-14T05:19:06;3.30;99.90
43647;DHT22;56152;49.996;18.980;2023-12-14T05:24:09;3.20;99.90
43647;DHT22;56152;49.996;18.980;2023-12-14T05:29:13;3.20;99.90
43647;DHT22;56152;49.996;18.980;2023-12-14T05:34:15;3.20;99.90
43647;DHT22;56152;49.996;18.980;2023-12-14T05:39:17;3.20;99.90
43647;DHT22;56152;49.996;18.980;2023-12-14T05:44:21;3.20;99.90
43647;DHT22;56152;49.996;18.980;2023-12-14T05:49:23;3.20;99.90
43647;DHT22;56152;49.996;18.980;2023-12-14T05:54:25;3.20;99.90
43647;DHT22;56152;49.996;18.980;2023-12-14T05:59:28;3.20;99.90
43647;DHT22;56152;49.996;18.980;2023-12-14T06:04:30;3.20;99.90
43647;DHT22;56152;49.996;18.980;2023-12-14T06:09:32;3.20;99.90
43647;DHT22;56152;49.996;18.980;2023-12-14T06:14:37;3.20;99.90
43647;DHT22;56152;49.996;18.980;2023-12-14T06:19:38;3.20;99.90
43647;DHT22;56152;49.996;18.980;2023-12-14T06:24:41;3.20;99.90
43647;DHT22;56152;49.996;18.980;2023-12-14T06:29:44;3.20;99.90
43647;DHT22;56152;49.996;18.980;2023-12-14T06:34:48;3.20;99.90
43647;DHT22;56152;49.996;18.980;2023-12-14T06:39:50;3.30;99.90
43647;DHT22;56152;49.996;18.980;2023-12-14T06:44:56;3.20;99.90
43647;DHT22;56152;49.996;18.980;2023-12-14T06:49:58;3.20;99.90
43647;DHT22;56152;49.996;18.980;2023-12-14T06:55:00;3.20;99.90
43647;DHT22;56152;49.996;18.980;2023-12-14T07:00:04;3.20;99.90
43647;DHT22;56152;49.996;18.980;2023-12-14T07:05:06;3.20;99.90
43647;DHT22;56152;49.996;18.980;2023-12-14T07:10:08;3.20;99.90
43647;DHT22;56152;49.996;18.980;2023-12-14T07:15:14;3.20;99.90
43647;DHT22;56152;49.996;18.980;2023-12-14T07:20:16;3.20;99.90
43647;DHT22;56152;49.996;18.980;2023-12-14T07:25:22;3.20;99.90
43647;DHT22;56152;49.996;18.980;2023-12-14T07:30:25;3.30;99.90
43647;DHT22;56152;49.996;18.980;2023-12-14T07:35:27;3.30;99.90
43647;DHT22;56152;49.996;18.980;2023-12-14T07:40:29;3.30;99.90
43647;DHT22;56152;49.996;18.980;2023-12-14T07:45:33;3.30;99.90
43647;DHT22;56152;49.996;18.980;2023-12-14T07:50:36;3.30;99.90
43647;DHT22;56152;49.996;18.980;2023-12-14T07:55:38;3.30;99.90
43647;DHT22;56152;49.996;18.980;2023-12-14T08:00:44;3.40;99.90
43647;DHT22;56152;49.996;18.980;2023-12-14T08:05:49;3.40;99.90
43647;DHT22;56152;49.996;18.980;2023-12-14T08:10:51;3.40;99.90
43647;DHT22;56152;49.996;18.980;2023-12-14T08:15:58;3.40;99.90
43647;DHT22;56152;49.996;18.980;2023-12-14T08:21:04;3.40;99.90
43647;DHT22;56152;49.996;18.980;2023-12-14T08:26:06;3.40;99.90
43647;DHT22;56152;49.996;18.980;2023-12-14T08:31:10;3.40;99.90
43647;DHT22;56152;49.996;18.980;2023-12-14T08:36:15;3.40;99.90
43647;DHT22;56152;49.996;18.980;2023-12-14T08:41:17;3.40;99.90
43647;DHT22;56152;49.996;18.980;2023-12-14T08:46:20;3.50;99.90
43647;DHT22;56152;49.996;18.980;2023-12-14T08:51:23;3.40;99.90
43647;DHT22;56152;49.996;18.980;2023-12-14T08:56:28;3.50;99.90
43647;DHT22;56152;49.996;18.980;2023-12-14T09:01:31;3.40;99.90
43647;DHT22;56152;49.996;18.980;2023-12-14T09:06:34;3.50;99.90
43647;DHT22;56152;49.996;18.980;2023-12-14T09:11:36;3.50;99.90
43647;DHT22;56152;49.996;18.980;2023-12-14T09:16:40;3.50;99.90
43647;DHT22;56152;49.996;18.980;2023-12-14T09:21:43;3.50;99.90
43647;DHT22;56152;49.996;18.980;2023-12-14T09:26:45;3.50;99.90
43647;DHT22;56152;49.996;18.980;2023-12-14T09:31:48;3.50;99.90
43647;DHT22;56152;49.996;18.980;2023-12-14T09:36:50;3.50;99.90
43647;DHT22;56152;49.996;18.980;2023-12-14T09:41:58;3.60;99.90
43647;DHT22;56152;49.996;18.980;2023-12-14T09:47:04;3.50;99.90
43647;DHT22;56152;49.996;18.980;2023-12-14T09:52:07;3.60;99.90
43647;DHT22;56152;49.996;18.980;2023-12-14T09:57:08;3.60;99.90
43647;DHT22;56152;49.996;18.980;2023-12-14T10:02:12;3.60;99.90
43647;DHT22;56152;49.996;18.980;2023-12-14T10:07:15;3.60;99.90
43647;DHT22;56152;49.996;18.980;2023-12-14T10:12:20;3.60;99.90
43647;DHT22;56152;49.996;18.980;2023-12-14T10:17:25;3.60;99.90
43647;DHT22;56152;49.996;18.980;2023-12-14T10:22:32;3.70;99.90
43647;DHT22;56152;49.996;18.980;2023-12-14T10:27:37;3.60;99.90
43647;DHT22;56152;49.996;18.980;2023-12-14T10:32:41;3.70;99.90
43647;DHT22;56152;49.996;18.980;2023-12-14T10:37:46;3.70;99.90
43647;DHT22;56152;49.996;18.980;2023-12-14T10:42:51;3.70;99.90
43647;DHT22;56152;49.996;18.980;2023-12-14T10:47:55;3.70;99.90
43647;DHT22;56152;49.996;18.980;2023-12-14T10:52:59;3.70;99.90
43647;DHT22;56152;49.996;18.980;2023-12-14T10:58:03;3.70;99.90
43647;DHT22;56152;49.996;18.980;2023-12-14T11:03:07;3.70;99.90
43647;DHT22;56152;49.996;18.980;2023-12-14T11:08:12;3.70;99.90
43647;DHT22;56152;49.996;18.980;2023-12-14T11:13:17;3.70;99.90
43647;DHT22;56152;49.996;18.980;2023-12-14T11:18:27;3.80;99.90
43647;DHT22;56152;49.996;18.980;2023-12-14T11:23:33;3.70;99.90
43647;DHT22;56152;49.996;18.980;2023-12-14T11:28:36;3.80;99.90
43647;DHT22;56152;49.996;18.980;2023-12-14T11:33:40;3.80;99.90
43647;DHT22;56152;49.996;18.980;2023-12-14T11:38:47;3.80;99.90
43647;DHT22;56152;49.996;18.980;2023-12-14T11:43:52;3.80;99.90
43647;DHT22;56152;49.996;18.980;2023-12-14T11:48:59;3.80;99.90
43647;DHT22;56152;49.996;18.980;2023-12-14T11:54:04;3.80;99.90
43647;DHT22;56152;49.996;18.980;2023-12-14T11:59:06;3.80;99.90
43647;DHT22;56152;49.996;18.980;2023-12-14T12:04:13;3.80;99.90
43647;DHT22;56152;49.996;18.980;2023-12-14T12:09:33;3.90;99.90
43647;DHT22;56152;49.996;18.980;2023-12-14T12:14:36;3.80;99.90
43647;DHT22;56152;49.996;18.980;2023-12-14T12:19:39;3.80;99.90
43647;DHT22;56152;49.996;18.980;2023-12-14T12:24:43;3.80;99.90
43647;DHT22;56152;49.996;18.980;2023-12-14T12:29:45;3.80;99.90
43647;DHT22;56152;49.996;18.980;2023-12-14T12:34:48;3.80;99.90
43647;DHT22;56152;49.996;18.980;2023-12-14T12:39:51;3.80;99.90
43647;DHT22;56152;49.996;18.980;2023-12-14T12:44:53;3.80;99.90
43647;DHT22;56152;49.996;18.980;2023-12-14T12:49:56;3.80;99.90
43647;DHT22;56152;49.996;18.980;2023-12-14T12:54:58;3.80;99.90
43647;DHT22;56152;49.996;18.980;2023-12-14T13:00:00;3.90;99.90
43647;DHT22;56152;49.996;18.980;2023-12-14T13:05:07;3.90;99.90
43647;DHT22;56152;49.996;18.980;2023-12-14T13:10:10;3.80;99.90
43647;DHT22;56152;49.996;18.980;2023-12-14T13:15:14;3.80;99.90
43647;DHT22;56152;49.996;18.980;2023-12-14T13:20:18;3.80;99.90
43647;DHT22;56152;49.996;18.980;2023-12-14T13:25:20;3.80;99.90
43647;DHT22;56152;49.996;18.980;2023-12-14T13:30:25;3.80;99.90
43647;DHT22;56152;49.996;18.980;2023-12-14T13:35:31;3.80;99.90
43647;DHT22;56152;49.996;18.980;2023-12-14T13:40:34;3.80;99.90
43647;DHT22;56152;49.996;18.980;2023-12-14T13:45:36;3.70;99.90
43647;DHT22;56152;49.996;18.980;2023-12-14T13:50:39;3.70;99.90
43647;DHT22;56152;49.996;18.980;2023-12-14T13:55:41;3.70;99.90
43647;DHT22;56152;49.996;18.980;2023-12-14T14:00:44;3.70;99.90
43647;DHT22;56152;49.996;18.980;2023-12-14T14:05:47;3.70;99.90
43647;DHT22;56152;49.996;18.980;2023-12-14T14:10:49;3.70;99.90
43647;DHT22;56152;49.996;18.980;2023-12-14T14:15:52;3.70;99.90
43647;DHT22;56152;49.996;18.980;2023-12-14T14:20:56;3.70;99.90
43647;DHT22;56152;49.996;18.980;2023-12-14T14:25:59;3.70;99.90
43647;DHT22;56152;49.996;18.980;2023-12-14T14:31:01;3.70;99.90
43647;DHT22;56152;49.996;18.980;2023-12-14T14:36:06;3.70;99.90
43647;DHT22;56152;49.996;18.980;2023-12-14T14:41:09;3.70;99.90
43647;DHT22;56152;49.996;18.980;2023-12-14T14:46:12;3.70;99.90
43647;DHT22;56152;49.996;18.980;2023-12-14T14:51:16;3.70;99.90
43647;DHT22;56152;49.996;18.980;2023-12-14T14:56:18;3.70;99.90
43647;DHT22;56152;49.996;18.980;2023-12-14T15:01:20;3.70;99.90
43647;DHT22;56152;49.996;18.980;2023-12-14T15:06:23;3.70;99.90
43647;DHT22;56152;49.996;18.980;2023-12-14T15:11:27;3.60;99.90
43647;DHT22;56152;49.996;18.980;2023-12-14T15:16:29;3.70;99.90
43647;DHT22;56152;49.996;18.980;2023-12-14T15:21:35;3.60;99.90
43647;DHT22;56152;49.996;18.980;2023-12-14T15:26:37;3.60;99.90
43647;DHT22;56152;49.996;18.980;2023-12-14T15:31:39;3.70;99.90
43647;DHT22;56152;49.996;18.980;2023-12-14T15:36:42;3.60;99.90
43647;DHT22;56152;49.996;18.980;2023-12-14T15:41:44;3.60;99.90
43647;DHT22;56152;49.996;18.980;2023-12-14T15:46:46;3.60;99.90
43647;DHT22;56152;49.996;18.980;2023-12-14T15:51:50;3.60;99.90
43647;DHT22;56152;49.996;18.980;2023-12-14T15:56:53;3.60;99.90
43647;DHT22;56152;49.996;18.980;2023-12-14T16:01:55;3.60;99.90
43647;DHT22;56152;49.996;18.980;2023-12-14T16:06:58;3.60;99.90
43647;DHT22;56152;49.996;18.980;2023-12-14T16:12:01;3.60;99.90
43647;DHT22;56152;49.996;18.980;2023-12-14T16:17:05;3.60;99.90
43647;DHT22;56152;49.996;18.980;2023-12-14T16:22:09;3.70;99.90
43647;DHT22;56152;49.996;18.980;2023-12-14T16:27:11;3.60;99.90
43647;DHT22;56152;49.996;18.980;2023-12-14T16:32:14;3.60;99.90
43647;DHT22;56152;49.996;18.980;2023-12-14T16:37:17;3.60;99.90
43647;DHT22;56152;49.996;18.980;2023-12-14T16:42:19;3.60;99.90
43647;DHT22;56152;49.996;18.980;2023-12-14T16:47:21;3.60;99.90
43647;DHT22;56152;49.996;18.980;2023-12-14T16:52:25;3.60;99.90
43647;DHT22;56152;49.996;18.980;2023-12-14T16:57:27;3.60;99.90
43647;DHT22;56152;49.996;18.980;2023-12-14T17:02:33;3.60;99.90
43647;DHT22;56152;49.996;18.980;2023-12-14T17:07:37;3.60;99.90
43647;DHT22;56152;49.996;18.980;2023-12-14T17:12:39;3.60;99.90
43647;DHT22;56152;49.996;18.980;2023-12-14T17:17:41;3.60;99.90
43647;DHT22;56152;49.996;18.980;2023-12-14T17:22:46;3.60;99.90
43647;DHT22;56152;49.996;18.980;2023-12-14T17:27:48;3.60;99.90
43647;DHT22;56152;49.996;18.980;2023-12-14T17:32:50;3.60;99.90
43647;DHT22;56152;49.996;18.980;2023-12-14T17:37:56;3.60;99.90
43647;DHT22;56152;49.996;18.980;2023-12-14T17:42:58;3.60;99.90
43647;DHT22;56152;49.996;18.980;2023-12-14T17:48:03;3.70;99.90
43647;DHT22;56152;49.996;18.980;2023-12-14T17:53:07;3.60;99.90
43647;DHT22;56152;49.996;18.980;2023-12-14T17:58:09;3.60;99.90
43647;DHT22;56152;49.996;18.980;2023-12-14T18:03:24;3.60;99.90
43647;DHT22;56152;49.996;18.980;2023-12-14T18:08:40;3.70;99.90
43647;DHT22;56152;49.996;18.980;2023-12-14T18:13:43;3.70;99.90
43647;DHT22;56152;49.996;18.980;2023-12-14T18:18:55;3.60;99.90
43647;DHT22;56152;49.996;18.980;2023-12-14T18:24:00;3.60;99.90
43647;DHT22;56152;49.996;18.980;2023-12-14T18:29:14;3.60;99.90
43647;DHT22;56152;49.996;18.980;2023-12-14T18:34:19;3.60;99.90
43647;DHT22;56152;49.996;18.980;2023-12-14T18:39:26;3.70;99.90
43647;DHT22;56152;49.996;18.980;2023-12-14T18:44:35;3.80;99.90
43647;DHT22;56152;49.996;18.980;2023-12-14T18:49:38;3.80;99.90
43647;DHT22;56152;49.996;18.980;2023-12-14T18:54:45;3.90;99.90
43647;DHT22;56152;49.996;18.980;2023-12-14T18:59:48;3.90;99.90
43647;DHT22;56152;49.996;18.980;2023-12-14T19:04:51;3.80;99.90
43647;DHT22;56152;49.996;18.980;2023-12-14T19:09:55;3.80;99.90
43647;DHT22;56152;49.996;18.980;2023-12-14T19:14:59;3.80;99.90
43647;DHT22;56152;49.996;18.980;2023-12-14T19:20:04;3.80;99.90
43647;DHT22;56152;49.996;18.980;2023-12-14T19:25:22;3.80;99.90
43647;DHT22;56152;49.996;18.980;2023-12-14T19:30:24;3.80;99.90
43647;DHT22;56152;49.996;18.980;2023-12-14T19:35:26;3.70;99.90
43647;DHT22;56152;49.996;18.980;2023-12-14T19:40:29;3.70;99.90
43647;DHT22;56152;49.996;18.980;2023-12-14T19:45:32;3.70;99.90
43647;DHT22;56152;49.996;18.980;2023-12-14T19:50:34;3.70;99.90
43647;DHT22;56152;49.996;18.980;2023-12-14T19:55:38;3.60;99.90
43647;DHT22;56152;49.996;18.980;2023-12-14T20:00:40;3.60;99.90
43647;DHT22;56152;49.996;18.980;2023-12-14T20:05:43;3.50;99.90
43647;DHT22;56152;49.996;18.980;2023-12-14T20:10:52;3.60;99.90
43647;DHT22;56152;49.996;18.980;2023-12-14T20:15:57;3.50;99.90
43647;DHT22;56152;49.996;18.980;2023-12-14T20:21:00;3.40;99.90
43647;DHT22;56152;49.996;18.980;2023-12-14T20:26:06;3.40;99.90
43647;DHT22;56152;49.996;18.980;2023-12-14T20:31:09;3.30;99.90
43647;DHT22;56152;49.996;18.980;2023-12-14T20:36:13;3.30;99.90
43647;DHT22;56152;49.996;18.980;2023-12-14T20:41:17;3.30;99.90
43647;DHT22;56152;49.996;18.980;2023-12-14T20:52:33;3.20;99.90
43647;DHT22;56152;49.996;18.980;2023-12-14T20:57:48;3.10;99.90
43647;DHT22;56152;49.996;18.980;2023-12-14T21:03:05;3.00;99.90
43647;DHT22;56152;49.996;18.980;2023-12-14T21:08:07;2.90;99.90
43647;DHT22;56152;49.996;18.980;2023-12-14T21:13:11;2.90;99.90
43647;DHT22;56152;49.996;18.980;2023-12-14T21:18:16;2.90;99.90
43647;DHT22;56152;49.996;18.980;2023-12-14T21:23:21;2.90;99.90
43647;DHT22;56152;49.996;18.980;2023-12-14T21:28:32;2.90;99.90
43647;DHT22;56152;49.996;18.980;2023-12-14T21:34:35;2.80;99.90
43647;DHT22;56152;49.996;18.980;2023-12-14T21:39:58;2.80;99.90
43647;DHT22;56152;49.996;18.980;2023-12-14T21:45:19;2.80;99.90
43647;DHT22;56152;49.996;18.980;2023-12-14T21:50:31;2.80;99.90
43647;DHT22;56152;49.996;18.980;2023-12-14T21:55:38;2.80;99.90
43647;DHT22;56152;49.996;18.980;2023-12-14T22:00:50;2.80;99.90
43647;DHT22;56152;49.996;18.980;2023-12-14T22:05:54;2.80;99.90
43647;DHT22;56152;49.996;18.980;2023-12-14T22:10:55;2.70;99.90
43647;DHT22;56152;49.996;18.980;2023-12-14T22:15:59;2.70;99.90
43647;DHT22;56152;49.996;18.980;2023-12-14T22:21:08;2.70;99.90
43647;DHT22;56152;49.996;18.980;2023-12-14T22:26:12;2.70;99.90
43647;DHT22;56152;49.996;18.980;2023-12-14T22:31:22;2.60;99.90
43647;DHT22;56152;49.996;18.980;2023-12-14T22:36:25;2.70;99.90
43647;DHT22;56152;49.996;18.980;2023-12-14T22:41:27;2.60;99.90
43647;DHT22;56152;49.996;18.980;2023-12-14T22:46:30;2.60;99.90
43647;DHT22;56152;49.996;18.980;2023-12-14T22:51:35;2.60;99.90
43647;DHT22;56152;49.996;18.980;2023-12-14T22:56:37;2.60;99.90
43647;DHT22;56152;49.996;18.980;2023-12-14T23:01:42;2.70;99.90
43647;DHT22;56152;49.996;18.980;2023-12-14T23:06:44;2.60;99.90
43647;DHT22;56152;49.996;18.980;2023-12-14T23:11:46;2.60;99.90
43647;DHT22;56152;49.996;18.980;2023-12-14T23:16:49;2.60;99.90
43647;DHT22;56152;49.996;18.980;2023-12-14T23:21:52;2.60;99.90
43647;DHT22;56152;49.996;18.980;2023-12-14T23:26:55;2.50;99.90
43647;DHT22;56152;49.996;18.980;2023-12-14T23:32:01;2.50;99.90
43647;DHT22;56152;49.996;18.980;2023-12-14T23:37:08;2.50;99.90
43647;DHT22;56152;49.996;18.980;2023-12-14T23:42:13;2.50;99.90
43647;DHT22;56152;49.996;18.980;2023-12-14T23:47:20;2.50;99.90
43647;DHT22;56152;49.996;18.980;2023-12-14T23:52:22;2.50;99.90
43647;DHT22;56152;49.996;18.980;2023-12-14T23:57:27;2.50;99.90
